sensor_id;sensor_type;location;lat;lon;timestamp;pressure;altitude;pressure_sealevel;temperature;humidity
58072;BME280;60383;46.626;18.866;2023-07-22T00:02:12;99993.34;;;19.43;91.52
58072;BME280;60383;46.626;18.866;2023-07-22T00:04:38;99987.66;;;19.57;91.14
58072;BME280;60383;46.626;18.866;2023-07-22T00:07:04;99986.75;;;19.63;91.88
58072;BME280;60383;46.626;18.866;2023-07-22T00:09:32;99989.53;;;19.63;91.75
58072;BME280;60383;46.626;18.866;2023-07-22T00:11:58;99987.97;;;19.67;91.62
58072;BME280;60383;46.626;18.866;2023-07-22T00:14:24;99988.50;;;19.57;91.01
58072;BME280;60383;46.626;18.866;2023-07-22T00:16:49;99986.31;;;19.66;91.55
58072;BME280;60383;46.626;18.866;2023-07-22T00:19:15;99990.53;;;19.69;91.24
58072;BME280;60383;46.626;18.866;2023-07-22T00:21:40;99990.44;;;19.57;91.84
58072;BME280;60383;46.626;18.866;2023-07-22T00:24:06;99989.59;;;19.56;91.57
58072;BME280;60383;46.626;18.866;2023-07-22T00:26:31;99997.84;;;19.63;91.46
58072;BME280;60383;46.626;18.866;2023-07-22T00:28:57;100008.97;;;19.63;91.25
58072;BME280;60383;46.626;18.866;2023-07-22T00:31:22;100017.13;;;19.58;91.45
58072;BME280;60383;46.626;18.866;2023-07-22T00:33:48;100027.97;;;19.66;90.88
58072;BME280;60383;46.626;18.866;2023-07-22T00:36:13;100025.78;;;19.68;90.65
58072;BME280;60383;46.626;18.866;2023-07-22T00:38:39;100023.69;;;19.63;91.04
58072;BME280;60383;46.626;18.866;2023-07-22T00:41:05;100020.16;;;19.56;91.21
58072;BME280;60383;46.626;18.866;2023-07-22T00:43:31;100017.06;;;19.64;91.13
58072;BME280;60383;46.626;18.866;2023-07-22T00:45:57;100032.13;;;19.50;91.02
58072;BME280;60383;46.626;18.866;2023-07-22T00:48:22;100048.13;;;19.55;91.85
58072;BME280;60383;46.626;18.866;2023-07-22T00:50:48;100053.06;;;19.53;91.35
58072;BME280;60383;46.626;18.866;2023-07-22T00:53:14;100064.38;;;19.51;91.07
58072;BME280;60383;46.626;18.866;2023-07-22T00:55:39;100067.97;;;19.58;90.90
58072;BME280;60383;46.626;18.866;2023-07-22T00:58:06;100077.31;;;19.64;90.35
58072;BME280;60383;46.626;18.866;2023-07-22T01:00:31;100060.66;;;19.64;90.47
58072;BME280;60383;46.626;18.866;2023-07-22T01:02:58;100038.44;;;19.64;90.61
58072;BME280;60383;46.626;18.866;2023-07-22T01:05:24;100030.56;;;19.61;90.60
58072;BME280;60383;46.626;18.866;2023-07-22T01:07:51;100031.06;;;19.51;90.75
58072;BME280;60383;46.626;18.866;2023-07-22T01:10:17;100025.34;;;19.46;91.34
58072;BME280;60383;46.626;18.866;2023-07-22T01:12:43;100026.66;;;19.43;91.33
58072;BME280;60383;46.626;18.866;2023-07-22T01:15:10;100030.66;;;19.47;91.37
58072;BME280;60383;46.626;18.866;2023-07-22T01:17:37;100038.78;;;19.49;91.64
58072;BME280;60383;46.626;18.866;2023-07-22T01:20:03;100050.75;;;19.50;91.51
58072;BME280;60383;46.626;18.866;2023-07-22T01:22:29;100071.25;;;19.48;91.21
58072;BME280;60383;46.626;18.866;2023-07-22T01:24:55;100075.97;;;19.48;90.97
58072;BME280;60383;46.626;18.866;2023-07-22T01:27:21;100082.19;;;19.43;91.14
58072;BME280;60383;46.626;18.866;2023-07-22T01:29:50;100069.13;;;19.44;91.32
58072;BME280;60383;46.626;18.866;2023-07-22T01:32:15;100059.97;;;19.43;91.29
58072;BME280;60383;46.626;18.866;2023-07-22T01:34:42;100070.34;;;19.55;90.94
58072;BME280;60383;46.626;18.866;2023-07-22T01:37:07;100077.28;;;19.45;90.96
58072;BME280;60383;46.626;18.866;2023-07-22T01:39:35;100074.75;;;19.37;91.45
58072;BME280;60383;46.626;18.866;2023-07-22T01:42:01;100086.28;;;19.34;91.47
58072;BME280;60383;46.626;18.866;2023-07-22T01:44:27;100087.38;;;19.33;91.14
58072;BME280;60383;46.626;18.866;2023-07-22T01:46:52;100097.19;;;19.36;91.56
58072;BME280;60383;46.626;18.866;2023-07-22T01:49:17;100085.00;;;19.37;91.47
58072;BME280;60383;46.626;18.866;2023-07-22T01:51:43;100085.31;;;19.22;92.58
58072;BME280;60383;46.626;18.866;2023-07-22T01:54:09;100091.66;;;19.29;92.33
58072;BME280;60383;46.626;18.866;2023-07-22T01:56:36;100108.06;;;19.37;91.58
58072;BME280;60383;46.626;18.866;2023-07-22T01:59:01;100101.13;;;19.21;92.09
58072;BME280;60383;46.626;18.866;2023-07-22T02:01:27;100108.63;;;19.14;92.97
58072;BME280;60383;46.626;18.866;2023-07-22T02:03:54;100100.66;;;19.24;93.60
58072;BME280;60383;46.626;18.866;2023-07-22T02:06:20;100108.34;;;19.22;93.36
58072;BME280;60383;46.626;18.866;2023-07-22T02:08:45;100114.28;;;19.33;92.22
58072;BME280;60383;46.626;18.866;2023-07-22T02:11:11;100106.81;;;19.33;91.98
58072;BME280;60383;46.626;18.866;2023-07-22T02:13:37;100118.53;;;19.35;92.10
58072;BME280;60383;46.626;18.866;2023-07-22T02:16:03;100120.69;;;19.33;92.28
58072;BME280;60383;46.626;18.866;2023-07-22T02:18:29;100123.69;;;19.31;92.00
58072;BME280;60383;46.626;18.866;2023-07-22T02:20:55;100120.31;;;19.23;92.51
58072;BME280;60383;46.626;18.866;2023-07-22T02:23:21;100122.66;;;19.26;93.01
58072;BME280;60383;46.626;18.866;2023-07-22T02:25:54;100129.97;;;19.13;93.29
58072;BME280;60383;46.626;18.866;2023-07-22T02:28:20;100124.66;;;19.05;93.74
58072;BME280;60383;46.626;18.866;2023-07-22T02:30:47;100133.88;;;19.06;93.58
58072;BME280;60383;46.626;18.866;2023-07-22T02:33:13;100128.97;;;19.08;93.21
58072;BME280;60383;46.626;18.866;2023-07-22T02:35:38;100130.03;;;19.07;93.49
58072;BME280;60383;46.626;18.866;2023-07-22T02:38:05;100132.56;;;19.08;93.75
58072;BME280;60383;46.626;18.866;2023-07-22T02:40:34;100128.75;;;19.03;93.95
58072;BME280;60383;46.626;18.866;2023-07-22T02:43:00;100131.94;;;19.06;93.55
58072;BME280;60383;46.626;18.866;2023-07-22T02:45:25;100134.53;;;19.01;93.57
58072;BME280;60383;46.626;18.866;2023-07-22T02:47:51;100135.34;;;19.02;93.73
58072;BME280;60383;46.626;18.866;2023-07-22T02:50:16;100137.47;;;19.06;93.71
58072;BME280;60383;46.626;18.866;2023-07-22T02:52:42;100134.53;;;19.01;93.04
58072;BME280;60383;46.626;18.866;2023-07-22T02:55:13;100126.19;;;19.01;93.30
58072;BME280;60383;46.626;18.866;2023-07-22T02:57:39;100123.47;;;18.94;93.36
58072;BME280;60383;46.626;18.866;2023-07-22T03:00:06;100123.25;;;18.96;93.64
58072;BME280;60383;46.626;18.866;2023-07-22T03:02:37;100132.63;;;18.95;93.10
58072;BME280;60383;46.626;18.866;2023-07-22T03:05:04;100135.63;;;18.93;93.74
58072;BME280;60383;46.626;18.866;2023-07-22T03:07:36;100145.28;;;18.77;94.04
58072;BME280;60383;46.626;18.866;2023-07-22T03:10:03;100148.84;;;18.84;94.10
58072;BME280;60383;46.626;18.866;2023-07-22T03:12:28;100169.13;;;18.85;94.48
58072;BME280;60383;46.626;18.866;2023-07-22T03:14:54;100175.97;;;18.76;94.45
58072;BME280;60383;46.626;18.866;2023-07-22T03:17:19;100169.34;;;18.83;94.39
58072;BME280;60383;46.626;18.866;2023-07-22T03:19:45;100170.00;;;18.79;94.29
58072;BME280;60383;46.626;18.866;2023-07-22T03:22:14;100170.44;;;18.82;94.39
58072;BME280;60383;46.626;18.866;2023-07-22T03:24:41;100149.72;;;18.85;94.08
58072;BME280;60383;46.626;18.866;2023-07-22T03:27:06;100165.28;;;18.86;94.11
58072;BME280;60383;46.626;18.866;2023-07-22T03:29:32;100164.41;;;18.99;93.96
58072;BME280;60383;46.626;18.866;2023-07-22T03:31:58;100165.03;;;19.08;93.11
58072;BME280;60383;46.626;18.866;2023-07-22T03:34:26;100167.56;;;19.09;93.11
58072;BME280;60383;46.626;18.866;2023-07-22T03:36:52;100166.94;;;19.07;92.65
58072;BME280;60383;46.626;18.866;2023-07-22T03:39:17;100172.94;;;19.04;92.79
58072;BME280;60383;46.626;18.866;2023-07-22T03:41:42;100172.72;;;19.06;92.55
58072;BME280;60383;46.626;18.866;2023-07-22T03:44:08;100171.13;;;19.23;92.19
58072;BME280;60383;46.626;18.866;2023-07-22T03:46:33;100167.81;;;19.08;92.76
58072;BME280;60383;46.626;18.866;2023-07-22T03:48:59;100167.59;;;19.03;93.13
58072;BME280;60383;46.626;18.866;2023-07-22T03:51:24;100163.09;;;19.08;93.28
58072;BME280;60383;46.626;18.866;2023-07-22T03:53:50;100174.19;;;19.08;93.22
58072;BME280;60383;46.626;18.866;2023-07-22T03:56:15;100167.34;;;19.18;93.18
58072;BME280;60383;46.626;18.866;2023-07-22T03:58:41;100171.00;;;19.11;93.41
58072;BME280;60383;46.626;18.866;2023-07-22T04:01:06;100175.69;;;19.11;93.59
58072;BME280;60383;46.626;18.866;2023-07-22T04:03:31;100186.31;;;19.21;93.14
58072;BME280;60383;46.626;18.866;2023-07-22T04:05:57;100192.91;;;19.26;91.98
58072;BME280;60383;46.626;18.866;2023-07-22T04:08:23;100197.41;;;19.21;91.61
58072;BME280;60383;46.626;18.866;2023-07-22T04:10:55;100195.69;;;19.26;91.60
58072;BME280;60383;46.626;18.866;2023-07-22T04:13:22;100195.09;;;19.18;92.17
58072;BME280;60383;46.626;18.866;2023-07-22T04:15:48;100199.97;;;19.22;92.31
58072;BME280;60383;46.626;18.866;2023-07-22T04:18:20;100197.59;;;19.26;92.38
58072;BME280;60383;46.626;18.866;2023-07-22T04:20:47;100198.06;;;19.23;92.11
58072;BME280;60383;46.626;18.866;2023-07-22T04:23:15;100201.88;;;19.28;92.20
58072;BME280;60383;46.626;18.866;2023-07-22T04:25:42;100193.66;;;19.47;91.43
58072;BME280;60383;46.626;18.866;2023-07-22T04:28:07;100186.78;;;19.56;90.56
58072;BME280;60383;46.626;18.866;2023-07-22T04:30:34;100186.50;;;19.64;90.98
58072;BME280;60383;46.626;18.866;2023-07-22T04:33:00;100190.50;;;19.75;90.63
58072;BME280;60383;46.626;18.866;2023-07-22T04:35:25;100187.78;;;19.62;90.63
58072;BME280;60383;46.626;18.866;2023-07-22T04:37:51;100185.63;;;20.03;89.09
58072;BME280;60383;46.626;18.866;2023-07-22T04:40:16;100188.53;;;20.15;88.51
58072;BME280;60383;46.626;18.866;2023-07-22T04:42:42;100188.22;;;20.23;88.11
58072;BME280;60383;46.626;18.866;2023-07-22T04:45:09;100187.03;;;20.12;88.07
58072;BME280;60383;46.626;18.866;2023-07-22T04:47:35;100199.06;;;20.31;87.84
58072;BME280;60383;46.626;18.866;2023-07-22T04:50:01;100200.03;;;20.43;87.26
58072;BME280;60383;46.626;18.866;2023-07-22T04:52:27;100201.72;;;20.45;87.05
58072;BME280;60383;46.626;18.866;2023-07-22T04:54:52;100204.34;;;20.65;86.53
58072;BME280;60383;46.626;18.866;2023-07-22T04:57:19;100210.63;;;20.79;85.43
58072;BME280;60383;46.626;18.866;2023-07-22T04:59:45;100217.91;;;20.80;85.12
58072;BME280;60383;46.626;18.866;2023-07-22T05:02:11;100224.94;;;20.82;84.74
58072;BME280;60383;46.626;18.866;2023-07-22T05:04:37;100235.22;;;21.00;84.78
58072;BME280;60383;46.626;18.866;2023-07-22T05:07:02;100238.09;;;21.12;83.71
58072;BME280;60383;46.626;18.866;2023-07-22T05:09:28;100248.06;;;21.20;83.62
58072;BME280;60383;46.626;18.866;2023-07-22T05:11:53;100247.13;;;21.26;82.92
58072;BME280;60383;46.626;18.866;2023-07-22T05:14:19;100238.72;;;21.33;82.87
58072;BME280;60383;46.626;18.866;2023-07-22T05:16:45;100245.13;;;21.33;83.76
58072;BME280;60383;46.626;18.866;2023-07-22T05:19:11;100252.72;;;21.45;82.78
58072;BME280;60383;46.626;18.866;2023-07-22T05:21:36;100249.78;;;21.58;81.73
58072;BME280;60383;46.626;18.866;2023-07-22T05:24:02;100254.31;;;21.71;81.16
58072;BME280;60383;46.626;18.866;2023-07-22T05:26:27;100258.22;;;21.82;80.36
58072;BME280;60383;46.626;18.866;2023-07-22T05:28:53;100249.66;;;21.95;79.11
58072;BME280;60383;46.626;18.866;2023-07-22T05:31:18;100255.00;;;21.97;78.96
58072;BME280;60383;46.626;18.866;2023-07-22T05:33:44;100250.09;;;22.11;78.54
58072;BME280;60383;46.626;18.866;2023-07-22T05:36:09;100264.13;;;22.04;79.78
58072;BME280;60383;46.626;18.866;2023-07-22T05:38:35;100261.13;;;22.17;79.54
58072;BME280;60383;46.626;18.866;2023-07-22T05:41:00;100262.84;;;22.30;78.71
58072;BME280;60383;46.626;18.866;2023-07-22T05:43:26;100264.47;;;22.38;77.65
58072;BME280;60383;46.626;18.866;2023-07-22T05:45:51;100261.81;;;22.55;76.57
58072;BME280;60383;46.626;18.866;2023-07-22T05:48:16;100257.72;;;22.46;76.04
58072;BME280;60383;46.626;18.866;2023-07-22T05:50:42;100262.31;;;22.52;75.87
58072;BME280;60383;46.626;18.866;2023-07-22T05:53:07;100263.69;;;22.61;75.74
58072;BME280;60383;46.626;18.866;2023-07-22T05:55:33;100255.31;;;22.61;76.14
58072;BME280;60383;46.626;18.866;2023-07-22T05:57:58;100253.59;;;22.72;75.98
58072;BME280;60383;46.626;18.866;2023-07-22T06:00:30;100254.19;;;22.74;77.08
58072;BME280;60383;46.626;18.866;2023-07-22T06:02:56;100257.72;;;22.70;77.05
58072;BME280;60383;46.626;18.866;2023-07-22T06:05:21;100263.66;;;22.85;77.85
58072;BME280;60383;46.626;18.866;2023-07-22T06:07:47;100265.00;;;22.94;76.96
58072;BME280;60383;46.626;18.866;2023-07-22T06:10:12;100267.81;;;22.94;77.88
58072;BME280;60383;46.626;18.866;2023-07-22T06:12:38;100265.88;;;23.19;77.30
58072;BME280;60383;46.626;18.866;2023-07-22T06:15:04;100268.03;;;22.93;78.53
58072;BME280;60383;46.626;18.866;2023-07-22T06:17:29;100270.81;;;23.05;77.74
58072;BME280;60383;46.626;18.866;2023-07-22T06:19:55;100265.88;;;23.19;75.06
58072;BME280;60383;46.626;18.866;2023-07-22T06:22:20;100270.47;;;23.25;74.57
58072;BME280;60383;46.626;18.866;2023-07-22T06:24:46;100268.72;;;23.48;75.60
58072;BME280;60383;46.626;18.866;2023-07-22T06:27:11;100267.31;;;23.33;72.62
58072;BME280;60383;46.626;18.866;2023-07-22T06:29:36;100273.31;;;23.54;72.03
58072;BME280;60383;46.626;18.866;2023-07-22T06:32:02;100276.56;;;23.63;71.59
58072;BME280;60383;46.626;18.866;2023-07-22T06:34:28;100282.22;;;23.39;70.58
58072;BME280;60383;46.626;18.866;2023-07-22T06:36:53;100291.03;;;23.59;69.92
58072;BME280;60383;46.626;18.866;2023-07-22T06:39:19;100287.84;;;23.68;70.84
58072;BME280;60383;46.626;18.866;2023-07-22T06:41:44;100293.72;;;23.54;71.01
58072;BME280;60383;46.626;18.866;2023-07-22T06:44:10;100299.28;;;23.66;68.80
58072;BME280;60383;46.626;18.866;2023-07-22T06:46:35;100303.56;;;23.45;70.60
58072;BME280;60383;46.626;18.866;2023-07-22T06:49:00;100300.56;;;23.47;71.49
58072;BME280;60383;46.626;18.866;2023-07-22T06:51:26;100302.72;;;23.56;69.00
58072;BME280;60383;46.626;18.866;2023-07-22T06:53:51;100297.28;;;23.38;71.13
58072;BME280;60383;46.626;18.866;2023-07-22T06:56:17;100301.91;;;23.44;71.72
58072;BME280;60383;46.626;18.866;2023-07-22T06:58:42;100311.81;;;23.64;71.82
58072;BME280;60383;46.626;18.866;2023-07-22T07:01:08;100308.97;;;23.75;69.76
58072;BME280;60383;46.626;18.866;2023-07-22T07:03:33;100318.41;;;23.86;68.74
58072;BME280;60383;46.626;18.866;2023-07-22T07:05:58;100316.34;;;23.93;66.62
58072;BME280;60383;46.626;18.866;2023-07-22T07:08:24;100306.75;;;23.89;66.15
58072;BME280;60383;46.626;18.866;2023-07-22T07:10:50;100314.16;;;23.96;67.39
58072;BME280;60383;46.626;18.866;2023-07-22T07:13:16;100314.03;;;24.02;66.48
58072;BME280;60383;46.626;18.866;2023-07-22T07:15:46;100306.06;;;24.11;65.71
58072;BME280;60383;46.626;18.866;2023-07-22T07:18:13;100320.28;;;24.09;64.95
58072;BME280;60383;46.626;18.866;2023-07-22T07:20:39;100316.88;;;24.19;65.44
58072;BME280;60383;46.626;18.866;2023-07-22T07:23:04;100316.88;;;24.19;66.17
58072;BME280;60383;46.626;18.866;2023-07-22T07:25:29;100323.25;;;24.32;65.50
58072;BME280;60383;46.626;18.866;2023-07-22T07:27:55;100324.06;;;24.32;65.02
58072;BME280;60383;46.626;18.866;2023-07-22T07:30:20;100328.09;;;24.53;62.93
58072;BME280;60383;46.626;18.866;2023-07-22T07:32:46;100334.06;;;24.57;62.26
58072;BME280;60383;46.626;18.866;2023-07-22T07:35:11;100332.34;;;24.56;62.56
58072;BME280;60383;46.626;18.866;2023-07-22T07:37:37;100333.59;;;24.65;64.18
58072;BME280;60383;46.626;18.866;2023-07-22T07:40:03;100332.06;;;24.86;61.27
58072;BME280;60383;46.626;18.866;2023-07-22T07:42:29;100339.09;;;24.72;62.23
58072;BME280;60383;46.626;18.866;2023-07-22T07:44:54;100341.22;;;24.82;64.99
58072;BME280;60383;46.626;18.866;2023-07-22T07:47:20;100350.22;;;25.01;63.53
58072;BME280;60383;46.626;18.866;2023-07-22T07:49:46;100351.56;;;25.15;60.06
58072;BME280;60383;46.626;18.866;2023-07-22T07:52:11;100339.88;;;25.24;61.82
58072;BME280;60383;46.626;18.866;2023-07-22T07:54:37;100352.31;;;25.11;61.03
58072;BME280;60383;46.626;18.866;2023-07-22T07:57:03;100359.25;;;25.42;58.03
58072;BME280;60383;46.626;18.866;2023-07-22T07:59:28;100363.34;;;25.17;58.14
58072;BME280;60383;46.626;18.866;2023-07-22T08:01:54;100363.44;;;25.23;58.66
58072;BME280;60383;46.626;18.866;2023-07-22T08:04:19;100366.97;;;25.52;58.24
58072;BME280;60383;46.626;18.866;2023-07-22T08:06:45;100356.69;;;25.24;57.72
58072;BME280;60383;46.626;18.866;2023-07-22T08:09:10;100364.66;;;25.49;58.25
58072;BME280;60383;46.626;18.866;2023-07-22T08:11:37;100364.13;;;25.69;56.73
58072;BME280;60383;46.626;18.866;2023-07-22T08:14:03;100378.94;;;25.47;55.36
58072;BME280;60383;46.626;18.866;2023-07-22T08:16:30;100380.28;;;25.84;55.54
58072;BME280;60383;46.626;18.866;2023-07-22T08:18:56;100381.00;;;25.96;56.11
58072;BME280;60383;46.626;18.866;2023-07-22T08:21:21;100383.63;;;26.25;54.27
58072;BME280;60383;46.626;18.866;2023-07-22T08:23:47;100391.25;;;26.30;53.17
58072;BME280;60383;46.626;18.866;2023-07-22T08:26:13;100391.63;;;26.39;51.68
58072;BME280;60383;46.626;18.866;2023-07-22T08:28:38;100394.88;;;26.53;53.37
58072;BME280;60383;46.626;18.866;2023-07-22T08:31:04;100389.94;;;26.65;53.32
58072;BME280;60383;46.626;18.866;2023-07-22T08:33:30;100395.97;;;26.52;53.07
58072;BME280;60383;46.626;18.866;2023-07-22T08:35:56;100398.22;;;26.77;54.07
58072;BME280;60383;46.626;18.866;2023-07-22T08:38:21;100397.19;;;26.61;54.77
58072;BME280;60383;46.626;18.866;2023-07-22T08:40:50;100400.03;;;26.93;51.13
58072;BME280;60383;46.626;18.866;2023-07-22T08:43:19;100397.28;;;26.99;51.01
58072;BME280;60383;46.626;18.866;2023-07-22T08:45:47;100404.75;;;26.88;51.61
58072;BME280;60383;46.626;18.866;2023-07-22T08:48:15;100400.34;;;26.97;51.91
58072;BME280;60383;46.626;18.866;2023-07-22T08:50:53;100405.69;;;26.99;51.48
58072;BME280;60383;46.626;18.866;2023-07-22T08:53:19;100405.53;;;27.10;50.80
58072;BME280;60383;46.626;18.866;2023-07-22T08:55:48;100411.63;;;27.35;49.08
58072;BME280;60383;46.626;18.866;2023-07-22T08:58:14;100415.22;;;27.30;48.88
58072;BME280;60383;46.626;18.866;2023-07-22T09:00:42;100412.47;;;27.35;48.11
58072;BME280;60383;46.626;18.866;2023-07-22T09:03:08;100421.81;;;27.41;48.13
58072;BME280;60383;46.626;18.866;2023-07-22T09:05:35;100413.41;;;27.46;48.06
58072;BME280;60383;46.626;18.866;2023-07-22T09:08:03;100406.94;;;27.46;47.00
58072;BME280;60383;46.626;18.866;2023-07-22T09:10:29;100406.25;;;27.71;47.45
58072;BME280;60383;46.626;18.866;2023-07-22T09:12:55;100403.44;;;27.71;45.41
58072;BME280;60383;46.626;18.866;2023-07-22T09:15:21;100404.06;;;27.88;44.21
58072;BME280;60383;46.626;18.866;2023-07-22T09:17:49;100400.72;;;27.92;46.09
58072;BME280;60383;46.626;18.866;2023-07-22T09:20:14;100403.28;;;27.98;44.79
58072;BME280;60383;46.626;18.866;2023-07-22T09:22:47;100401.16;;;28.21;44.20
58072;BME280;60383;46.626;18.866;2023-07-22T09:25:15;100403.16;;;28.31;42.36
58072;BME280;60383;46.626;18.866;2023-07-22T09:27:41;100403.44;;;28.34;44.40
58072;BME280;60383;46.626;18.866;2023-07-22T09:30:25;100402.91;;;28.43;41.72
58072;BME280;60383;46.626;18.866;2023-07-22T09:32:53;100394.47;;;28.43;42.60
58072;BME280;60383;46.626;18.866;2023-07-22T09:35:19;100389.94;;;28.42;42.40
58072;BME280;60383;46.626;18.866;2023-07-22T09:37:45;100389.41;;;28.45;41.73
58072;BME280;60383;46.626;18.866;2023-07-22T09:40:22;100391.72;;;28.74;42.42
58072;BME280;60383;46.626;18.866;2023-07-22T09:42:53;100394.53;;;28.89;41.19
58072;BME280;60383;46.626;18.866;2023-07-22T09:45:21;100387.78;;;28.95;40.85
58072;BME280;60383;46.626;18.866;2023-07-22T09:47:48;100393.44;;;29.06;41.45
58072;BME280;60383;46.626;18.866;2023-07-22T09:50:19;100388.91;;;29.10;41.15
58072;BME280;60383;46.626;18.866;2023-07-22T09:52:51;100390.31;;;29.17;37.69
58072;BME280;60383;46.626;18.866;2023-07-22T09:55:19;100384.97;;;29.11;36.80
58072;BME280;60383;46.626;18.866;2023-07-22T09:57:48;100382.13;;;29.26;37.01
58072;BME280;60383;46.626;18.866;2023-07-22T10:00:14;100378.47;;;29.15;36.08
58072;BME280;60383;46.626;18.866;2023-07-22T10:02:42;100371.72;;;29.16;36.85
58072;BME280;60383;46.626;18.866;2023-07-22T10:05:12;100372.56;;;29.27;37.36
58072;BME280;60383;46.626;18.866;2023-07-22T10:07:43;100383.00;;;29.16;38.20
58072;BME280;60383;46.626;18.866;2023-07-22T10:10:11;100383.56;;;29.24;39.89
58072;BME280;60383;46.626;18.866;2023-07-22T10:12:41;100384.94;;;29.42;38.42
58072;BME280;60383;46.626;18.866;2023-07-22T10:15:09;100378.47;;;29.52;38.26
58072;BME280;60383;46.626;18.866;2023-07-22T10:17:35;100377.28;;;29.63;37.71
58072;BME280;60383;46.626;18.866;2023-07-22T10:20:01;100364.81;;;29.85;38.98
58072;BME280;60383;46.626;18.866;2023-07-22T10:22:34;100375.81;;;29.76;39.19
58072;BME280;60383;46.626;18.866;2023-07-22T10:25:02;100371.19;;;30.11;38.95
58072;BME280;60383;46.626;18.866;2023-07-22T10:27:30;100371.84;;;29.92;37.70
58072;BME280;60383;46.626;18.866;2023-07-22T10:29:56;100364.47;;;30.02;37.86
58072;BME280;60383;46.626;18.866;2023-07-22T10:32:22;100371.19;;;30.16;36.85
58072;BME280;60383;46.626;18.866;2023-07-22T10:34:47;100366.91;;;30.24;37.80
58072;BME280;60383;46.626;18.866;2023-07-22T10:37:13;100373.41;;;30.19;37.18
58072;BME280;60383;46.626;18.866;2023-07-22T10:39:38;100367.06;;;30.38;35.44
58072;BME280;60383;46.626;18.866;2023-07-22T10:42:05;100365.41;;;30.37;35.96
58072;BME280;60383;46.626;18.866;2023-07-22T10:44:36;100353.00;;;30.33;36.05
58072;BME280;60383;46.626;18.866;2023-07-22T10:47:02;100344.81;;;30.31;36.34
58072;BME280;60383;46.626;18.866;2023-07-22T10:49:48;100352.47;;;30.31;36.08
58072;BME280;60383;46.626;18.866;2023-07-22T10:52:14;100349.53;;;30.51;34.99
58072;BME280;60383;46.626;18.866;2023-07-22T10:54:40;100349.69;;;30.65;36.72
58072;BME280;60383;46.626;18.866;2023-07-22T10:59:48;100349.41;;;30.67;34.55
58072;BME280;60383;46.626;18.866;2023-07-22T11:02:25;100352.16;;;30.77;33.55
58072;BME280;60383;46.626;18.866;2023-07-22T11:04:51;100348.16;;;30.83;32.87
58072;BME280;60383;46.626;18.866;2023-07-22T11:07:30;100348.31;;;30.63;33.26
58072;BME280;60383;46.626;18.866;2023-07-22T11:09:55;100350.38;;;30.52;33.82
58072;BME280;60383;46.626;18.866;2023-07-22T11:12:21;100349.38;;;30.72;32.42
58072;BME280;60383;46.626;18.866;2023-07-22T11:14:51;100342.56;;;30.73;32.92
58072;BME280;60383;46.626;18.866;2023-07-22T11:17:23;100351.94;;;30.68;33.52
58072;BME280;60383;46.626;18.866;2023-07-22T11:19:55;100359.69;;;30.52;32.86
58072;BME280;60383;46.626;18.866;2023-07-22T11:22:20;100347.63;;;30.76;32.01
58072;BME280;60383;46.626;18.866;2023-07-22T11:24:45;100351.28;;;30.77;32.27
58072;BME280;60383;46.626;18.866;2023-07-22T11:27:11;100347.94;;;30.74;32.58
58072;BME280;60383;46.626;18.866;2023-07-22T11:29:37;100347.22;;;30.93;32.71
58072;BME280;60383;46.626;18.866;2023-07-22T11:32:04;100353.25;;;31.16;32.91
58072;BME280;60383;46.626;18.866;2023-07-22T11:34:29;100347.94;;;31.09;32.21
58072;BME280;60383;46.626;18.866;2023-07-22T11:36:56;100350.47;;;31.05;31.84
58072;BME280;60383;46.626;18.866;2023-07-22T11:39:26;100348.38;;;31.21;31.96
58072;BME280;60383;46.626;18.866;2023-07-22T11:41:52;100344.34;;;31.28;32.96
58072;BME280;60383;46.626;18.866;2023-07-22T11:44:19;100355.84;;;31.07;34.46
58072;BME280;60383;46.626;18.866;2023-07-22T11:51:55;100355.28;;;31.10;31.86
58072;BME280;60383;46.626;18.866;2023-07-22T11:54:21;100358.91;;;30.81;33.41
58072;BME280;60383;46.626;18.866;2023-07-22T11:56:47;100364.22;;;30.88;33.09
58072;BME280;60383;46.626;18.866;2023-07-22T11:59:13;100365.91;;;30.89;34.38
58072;BME280;60383;46.626;18.866;2023-07-22T12:01:38;100363.16;;;31.13;33.12
58072;BME280;60383;46.626;18.866;2023-07-22T12:04:10;100361.78;;;31.05;32.72
58072;BME280;60383;46.626;18.866;2023-07-22T12:06:36;100370.03;;;31.02;32.78
58072;BME280;60383;46.626;18.866;2023-07-22T12:09:02;100359.06;;;30.95;32.76
58072;BME280;60383;46.626;18.866;2023-07-22T12:11:32;100360.00;;;30.85;32.77
58072;BME280;60383;46.626;18.866;2023-07-22T12:14:08;100350.53;;;31.00;32.37
58072;BME280;60383;46.626;18.866;2023-07-22T12:16:39;100345.97;;;31.04;32.84
58072;BME280;60383;46.626;18.866;2023-07-22T12:19:06;100348.41;;;30.87;32.56
58072;BME280;60383;46.626;18.866;2023-07-22T12:21:32;100347.78;;;30.95;33.25
58072;BME280;60383;46.626;18.866;2023-07-22T12:23:57;100345.13;;;30.74;32.35
58072;BME280;60383;46.626;18.866;2023-07-22T12:26:23;100342.38;;;30.99;32.43
58072;BME280;60383;46.626;18.866;2023-07-22T12:28:49;100335.97;;;30.88;32.74
58072;BME280;60383;46.626;18.866;2023-07-22T12:31:14;100337.59;;;30.94;30.94
58072;BME280;60383;46.626;18.866;2023-07-22T12:33:40;100330.81;;;30.90;30.48
58072;BME280;60383;46.626;18.866;2023-07-22T12:36:05;100330.50;;;30.62;31.27
58072;BME280;60383;46.626;18.866;2023-07-22T12:38:31;100323.00;;;30.82;31.09
58072;BME280;60383;46.626;18.866;2023-07-22T12:40:57;100319.13;;;30.72;32.24
58072;BME280;60383;46.626;18.866;2023-07-22T12:43:22;100322.31;;;30.61;32.05
58072;BME280;60383;46.626;18.866;2023-07-22T12:45:48;100322.75;;;30.78;31.95